Pagrindinis puslapis
METAR-TAF:

METAR-TAF

Oro uostai :

Simferopolis, Rusija

platuma: 45-03-08N, ilguma: 033-58-31E, Aukštis: 195 m

Dabartinis oras

Ataskaita buvo paskelbta 44 minutes, ne 17:00 UTC
Vėjas 10 kt iš Šiaurės Rytų
Temperatūra 26°C
Drėgmė 34%
Slėgis 1010 hPa
Matomumas 10 km arba daugiau
nėra debesų žemiau 1500 m ir nėra kamuolinių lietaus debesų

METAR: URFF 091700Z 05005MPS CAVOK 26/09 Q1010 R01/090095 NOSIG

Laikas: 20:44 (17:44 UTC)

Prognozė

Ataskaita buvo paskelbta 53 minutes, ne 16:51 UTC
Prognozė galioja nuo 09 metu 18 UTC su 10 metu 18 UTC
Vėjas 6 kt iš Šiaurės Rytų
Matomumas 10 km arba daugiau
nėra debesų žemiau 1500 m ir nėra kamuolinių lietaus debesų
Tapsmas
nuo 10 metu 06 UTC su 10 metu 08 UTC
Vėjas 16 kt iš Šiaurės/Šiaurės Rytų su gūsio iki 25 kt

TAF: URFF 091651Z 0918/1018 05003MPS CAVOK TX31/1010Z TN18/1003Z BECMG 1006/1008 03008G13MPS

Orai ataskaitas ir orų prognozės (METAR, TAF).

turimą stotys yra geltonos ir raudonos taškus žemėlapyje.

Perkelti pele per norėdami pamatyti stoties vardą.

Tada spustelėkite, norėdami matyti oro stebėjimo ir prognozės.

Norėdami pakeisti žemėlapį: spustelėkite ant žalios mygtukų su juodo kryžiaus žemyn,; žalią mygtuką su brūkšneliu, jei norite nutolinti; arba žalių rodyklių gretimoms žemėlapius.


METAR-TAF: